Latest Weather Observations for Norseman Airport

IDW60801

Issued at 2:02 pm WST Friday 30 January 2015 (issued every 30 minutes, with the page automatically refreshed every 10 minutes)

About weather observations | Map of weather stations | Latest weather observations for WA | Other Formats
Station Details ID: 012009 Name: NORSEMAN AERO Lat: -32.21 Lon: 121.75 Height: 262.5 m
Data from the previous 72 hours. | See also: Recent months at Norseman Airport
Date/Time
WST
Temp
°C
App
Temp
°C
Dew
Point
Rel
Hum
%
Delta-T
°C
Wind Press
QNH
hPa
Press
MSL
hPa
Rain
since 9 am
mm
Dir
 
Spd
km/h
Gust
km/h
Spd
kts
Gust
kts
30/02:00pm 31.6 28.7 9.8 26 12.5 ESE 15 26 8 14 1013.6 1012.3 0.0
30/01:30pm 31.6 27.8 9.2 25 12.7 ESE 19 30 10 16 1013.8 1012.5 0.0
30/01:00pm 31.7 28.8 9.8 26 12.6 ESE 15 28 8 15 1014.1 1012.8 0.0
30/12:30pm 30.8 27.7 10.2 28 11.9 SE 17 28 9 15 1014.5 1013.2 0.0
30/12:00pm 30.6 28.6 10.0 28 11.8 SSE 11 24 6 13 1014.9 1013.6 0.0
30/11:30am 29.3 25.7 9.9 30 11.0 SSE 19 33 10 18 1015.2 1013.8 0.0
30/11:00am 28.8 26.1 10.5 32 10.5 SE 15 28 8 15 1015.8 1014.5 0.0
30/10:30am 27.7 25.0 10.4 34 9.8 ESE 15 28 8 15 1016.1 1014.8 0.0
30/10:00am 26.9 24.6 10.6 36 9.3 ESE 13 24 7 13 1016.2 1014.9 0.0
30/09:30am 25.6 22.7 11.0 40 8.3 ESE 17 24 9 13 1016.2 1014.9 0.0
30/09:00am 23.8 21.8 11.5 46 7.0 ESE 13 20 7 11 1016.5 1015.2 0.0
30/08:30am 22.8 20.4 11.5 49 6.4 ESE 15 22 8 12 1016.6 1015.3 0.0
30/08:00am 21.3 19.8 11.9 55 5.3 ESE 11 19 6 10 1016.5 1015.2 0.0
30/07:30am 20.3 18.9 13.3 64 4.0 ESE 13 26 7 14 1016.5 1015.2 0.0
30/07:00am 18.5 17.0 13.1 71 3.1 SE 13 22 7 12 1016.4 1015.1 0.0
30/06:30am 17.7 16.8 13.8 78 2.2 SE 11 17 6 9 1016.4 1015.1 0.0
30/06:00am 16.9 16.1 14.0 83 1.7 ESE 11 17 6 9 1015.8 1014.5 0.0
30/05:30am 16.3 15.8 13.8 85 1.4 SE 9 13 5 7 1015.3 1013.9 0.0
30/05:00am 16.4 15.7 13.3 82 1.8 ESE 9 19 5 10 1014.8 1013.5 0.0
30/04:30am 16.6 16.0 12.4 76 2.3 ESE 7 11 4 6 1014.5 1013.2 0.0
30/04:00am 16.8 17.0 11.7 72 2.8 SE 2 6 1 3 1014.2 1012.9 0.0
30/03:30am 17.5 16.4 11.8 69 3.2 SE 9 11 5 6 1014.0 1012.7 0.0
30/03:00am 18.0 16.7 11.3 65 3.7 ESE 9 13 5 7 1013.8 1012.5 0.0
30/02:30am 18.6 17.2 10.9 61 4.2 ESE 9 17 5 9 1013.7 1012.4 0.0
30/02:00am 19.3 18.2 10.0 55 5.0 ESE 6 9 3 5 1013.7 1012.4 0.0
30/01:30am 20.0 18.2 9.6 51 5.6 ESE 9 15 5 8 1013.8 1012.5 0.0
30/01:00am 20.8 18.9 9.1 47 6.3 ESE 9 13 5 7 1013.5 1012.2 0.0
30/12:30am 21.1 20.8 10.0 49 6.1 SW 2 9 1 5 1013.5 1012.2 0.0
30/12:00am 22.3 20.7 10.1 46 6.7 ESE 9 15 5 8 1013.4 1012.1 0.0
 
Date/Time
WST
Temp
°C
App
Temp
°C
Dew
Point
Rel
Hum
%
Delta-T
°C
Wind Press
QNH
hPa
Press
MSL
hPa
Rain
since 9 am
mm
Dir
 
Spd
km/h
Gust
km/h
Spd
kts
Gust
kts
29/11:30pm 23.3 21.1 9.3 41 7.6 ESE 11 17 6 9 1013.5 1012.2 0.0
29/11:00pm 24.1 22.3 9.3 39 8.1 SE 9 19 5 10 1013.3 1012.0 0.0
29/10:30pm 25.0 21.1 9.3 37 8.7 ESE 20 32 11 17 1012.9 1011.6 0.0
29/10:00pm 25.9 21.0 10.1 37 8.9 E 26 41 14 22 1012.6 1011.3 0.0
29/09:30pm 26.6 23.2 11.1 38 8.9 ESE 20 32 11 17 1012.6 1011.3 0.0
29/09:11pm 27.4 22.6 11.8 38 9.1 ESE 28 46 15 25 1012.3 1011.0 0.0
29/09:00pm 27.9 23.6 11.9 37 9.3 ESE 26 43 14 23 1012.0 1010.6 0.0
29/08:30pm 29.4 24.8 11.0 32 10.7 ESE 26 39 14 21 1011.3 1009.9 0.0
29/08:00pm 30.7 25.8 2.0 16 14.4 ESE 17 24 9 13 1010.5 1009.2 0.0
29/07:30pm 31.1 26.9 1.4 15 14.8 SE 13 19 7 10 1010.1 1008.8 0.0
29/07:00pm 32.5 27.8 0.6 13 15.9 SE 15 24 8 13 1009.7 1008.4 0.0
29/06:30pm 33.8 29.0 0.5 12 16.7 SE 15 20 8 11 1009.3 1008.0 0.0
29/06:00pm 34.8 29.8 1.2 12 17.1 SSE 17 26 9 14 1008.9 1007.6 0.0
29/05:30pm 35.3 29.8 0.4 11 17.6 ESE 19 28 10 15 1008.7 1007.3 0.0
29/05:00pm 35.3 30.0 1.6 12 17.3 SE 19 30 10 16 1008.5 1007.1 0.0
29/04:30pm 35.7 31.5 1.9 12 17.5 S 13 28 7 15 1008.5 1007.1 0.0
29/04:00pm 36.6 32.4 1.4 11 18.2 ESE 13 24 7 13 1008.5 1007.1 0.0
29/03:30pm 36.1 32.2 1.0 11 17.9 ESE 11 19 6 10 1008.9 1007.6 0.0
29/03:00pm 36.2 32.7 1.1 11 18.0 SSE 9 20 5 11 1009.1 1007.8 0.0
29/02:30pm 35.6 31.8 1.8 12 17.4 NE 11 22 6 12 1009.4 1008.1 0.0
29/02:00pm 35.6 31.6 0.6 11 17.7 NNW 11 15 6 8 1009.9 1008.6 0.0
29/01:30pm 35.5 32.1 1.8 12 17.4 N 9 19 5 10 1010.2 1008.9 0.0
29/01:00pm 34.1 30.3 3.8 15 16.0 N 13 19 7 10 1010.5 1009.2 0.0
29/12:30pm 34.2 31.5 3.9 15 16.0 N 7 13 4 7 1010.9 1009.6 0.0
29/12:00pm 34.0 31.2 7.1 19 15.0 ENE 11 22 6 12 1011.5 1010.1 0.0
29/11:30am 32.5 29.4 7.4 21 13.9 NNE 13 24 7 13 1011.9 1010.5 0.0
29/11:00am 32.0 29.3 8.9 24 13.1 NE 13 24 7 13 1012.3 1011.0 0.0
29/10:30am 30.7 27.1 8.4 25 12.5 NE 17 28 9 15 1012.7 1011.4 0.0
29/10:00am 29.1 26.1 9.3 29 11.1 NE 15 22 8 12 1013.1 1011.8 0.0
29/09:30am 27.9 25.0 9.7 32 10.3 NE 15 22 8 12 1013.5 1012.2 0.0
29/09:00am 26.2 22.8 10.4 37 8.9 NE 19 26 10 14 1013.6 1012.3 0.0
29/08:30am 24.5 21.1 10.4 41 7.9 NE 19 28 10 15 1013.8 1012.5 0.0
29/08:00am 23.1 20.1 11.8 49 6.4 NE 19 26 10 14 1014.0 1012.7 0.0
29/07:30am 20.6 18.0 12.1 58 4.8 NE 17 26 9 14 1014.1 1012.8 0.0
29/07:00am 19.3 16.7 12.1 63 4.1 NE 17 20 9 11 1014.1 1012.8 0.0
29/06:30am 18.3 15.8 12.3 68 3.4 ENE 17 22 9 12 1013.8 1012.5 0.0
29/06:00am 17.6 16.2 12.1 70 3.1 ENE 11 17 6 9 1013.4 1012.1 0.0
29/05:30am 17.0 14.8 12.1 73 2.7 ENE 15 20 8 11 1013.0 1011.7 0.0
29/05:00am 17.2 14.9 11.9 71 2.9 NE 15 20 8 11 1012.7 1011.4 0.0
29/04:30am 17.0 15.3 11.3 69 3.1 ENE 11 13 6 7 1012.4 1011.1 0.0
29/04:00am 17.8 15.8 11.4 66 3.5 NE 13 15 7 8 1012.3 1011.0 0.0
29/03:30am 18.1 16.0 11.2 64 3.8 NE 13 17 7 9 1012.0 1010.6 0.0
29/03:00am 18.5 16.2 10.6 60 4.3 ENE 13 15 7 8 1011.9 1010.5 0.0
29/02:30am 18.7 16.2 9.8 56 4.8 NE 13 17 7 9 1012.0 1010.6 0.0
29/02:00am 19.4 16.7 9.0 51 5.5 ENE 13 17 7 9 1012.2 1010.8 0.0
29/01:30am 20.2 17.3 8.2 46 6.3 NE 13 19 7 10 1012.3 1011.0 0.0
29/01:00am 20.9 17.9 7.5 42 7.0 NE 13 22 7 12 1012.2 1010.8 0.0
29/12:30am 21.8 17.4 7.2 39 7.6 E 20 30 11 16 1011.8 1010.4 0.0
29/12:00am 22.4 17.6 7.4 38 7.9 E 22 37 12 20 1011.6 1010.2 0.0
 
Date/Time
WST
Temp
°C
App
Temp
°C
Dew
Point
Rel
Hum
%
Delta-T
°C
Wind Press
QNH
hPa
Press
MSL
hPa
Rain
since 9 am
mm
Dir
 
Spd
km/h
Gust
km/h
Spd
kts
Gust
kts
28/11:30pm 22.9 18.3 8.2 39 7.9 E 22 32 12 17 1011.9 1010.5 0.0
28/11:00pm 23.6 18.7 8.5 38 8.2 E 24 41 13 22 1012.0 1010.6 0.0
28/10:30pm 24.2 19.3 8.6 37 8.5 E 24 35 13 19 1012.2 1010.8 0.0
28/10:00pm 24.7 20.2 8.6 36 8.8 E 22 33 12 18 1012.2 1010.8 0.0
28/09:30pm 25.4 20.5 7.1 31 9.7 E 22 30 12 16 1012.2 1010.8 0.0
28/09:00pm 26.1 21.4 0.7 19 12.1 E 15 19 8 10 1012.0 1010.6 0.0
28/08:30pm 26.4 22.4 0.2 18 12.4 E 11 15 6 8 1011.8 1010.4 0.0
28/08:00pm 27.2 23.1 0.1 17 12.9 E 11 13 6 7 1011.4 1010.0 0.0
28/07:30pm 29.0 25.3 -0.2 15 14.0 E 9 15 5 8 1011.2 1009.8 0.0
28/07:00pm 30.6 25.6 -0.9 13 15.1 E 15 20 8 11 1010.6 1009.3 0.0
28/06:30pm 31.9 26.5 -1.0 12 15.8 ENE 17 24 9 13 1010.3 1009.0 0.0
28/06:00pm 32.7 26.7 -2.9 10 16.7 ENE 19 26 10 14 1010.1 1008.8 0.0
28/05:30pm 33.2 27.1 -2.5 10 16.9 ENE 20 28 11 15 1009.9 1008.6 0.0
28/05:00pm 33.4 27.9 -2.3 10 17.0 ENE 17 28 9 15 1009.9 1008.6 0.0
28/04:30pm 33.4 28.6 -2.3 10 17.0 E 13 32 7 17 1009.9 1008.6 0.0
28/04:00pm 33.6 29.6 -2.2 10 17.1 NE 9 17 5 9 1010.3 1009.0 0.0
28/03:30pm 33.4 27.8 0.1 12 16.5 E 19 30 10 16 1010.6 1009.3 0.0
28/03:00pm 33.7 29.5 1.5 13 16.4 ESE 13 20 7 11 1010.8 1009.5 0.0
28/02:30pm 33.1 28.4 1.0 13 16.1 E 15 24 8 13 1011.2 1009.8 0.0
28/02:00pm 32.1 28.0 2.2 15 15.2 SE 13 24 7 13 1011.5 1010.1 0.0
28/01:30pm 33.4 29.9 3.3 15 15.7 E 11 24 6 13 1011.7 1010.3 0.0
28/01:00pm 31.7 27.9 3.7 17 14.6 E 13 28 7 15 1012.1 1010.7 0.0
28/12:30pm 31.7 27.3 4.5 18 14.3 NE 17 30 9 16 1012.4 1011.1 0.0
28/12:00pm 31.8 27.3 6.8 21 13.7 NE 20 33 11 18 1012.7 1011.4 0.0
28/11:30am 30.8 26.6 7.3 23 12.9 E 19 32 10 17 1013.3 1012.0 0.0
28/11:00am 29.2 24.9 7.7 26 11.8 NE 20 33 11 18 1013.7 1012.4 0.0
28/10:30am 29.0 24.8 8.1 27 11.5 NE 20 33 11 18 1014.0 1012.7 0.0
28/10:00am 28.0 23.4 8.3 29 10.8 NE 22 32 12 17 1014.4 1013.1 0.0
28/09:30am 26.2 21.1 7.7 31 10.0 NE 24 33 13 18 1014.6 1013.3 0.0
28/09:00am 25.2 20.8 7.3 32 9.5 NE 20 30 11 16 1014.8 1013.5 0.0
28/08:30am 23.6 19.2 7.3 35 8.6 NE 20 30 11 16 1015.0 1013.7 0.0
28/08:00am 22.1 18.0 7.9 40 7.5 NE 19 24 10 13 1015.2 1013.8 0.0
28/07:30am 20.7 16.8 8.7 46 6.4 NE 19 26 10 14 1015.2 1013.8 0.0
28/07:00am 19.2 15.5 10.2 56 4.9 NE 20 26 11 14 1015.2 1013.8 0.0
28/06:30am 18.1 14.7 10.7 62 4.0 NE 19 26 10 14 1014.8 1013.5 0.0
28/06:00am 17.5 15.4 11.1 66 3.5 NE 13 19 7 10 1014.6 1013.3 0.0
28/05:30am 16.2 14.7 10.7 70 3.0 ENE 9 13 5 7 1014.4 1013.1 0.0
28/05:00am 16.7 15.3 11.0 69 3.1 ENE 9 13 5 7 1014.0 1012.7 0.0
28/04:30am 17.3 15.6 11.1 67 3.4 NE 11 15 6 8 1013.9 1012.6 0.0
28/04:00am 17.7 15.6 11.0 65 3.7 NE 13 19 7 10 1013.7 1012.4 0.0
28/03:30am 18.0 15.9 11.1 64 3.8 NE 13 17 7 9 1013.3 1012.0 0.0
28/03:00am 18.8 15.6 11.1 61 4.2 NE 19 32 10 17 1013.1 1011.8 0.0
28/02:30am 19.2 16.4 11.5 61 4.3 NE 17 20 9 11 1013.0 1011.7 0.0
28/02:00am 19.5 17.5 11.5 60 4.5 ENE 13 24 7 13 1012.8 1011.5 0.0
28/01:30am 20.1 17.8 11.8 59 4.7 ENE 15 28 8 15 1012.9 1011.6 0.0
28/01:00am 20.7 18.3 11.3 55 5.3 ENE 15 26 8 14 1012.8 1011.5 0.0
28/12:30am 21.4 18.2 11.1 52 5.8 ENE 19 32 10 17 1012.7 1011.4 0.0
28/12:00am 22.1 18.7 11.2 50 6.1 ENE 20 30 11 16 1012.7 1011.4 0.0
 
Date/Time
WST
Temp
°C
App
Temp
°C
Dew
Point
Rel
Hum
%
Delta-T
°C
Wind Press
QNH
hPa
Press
MSL
hPa
Rain
since 9 am
mm
Dir
 
Spd
km/h
Gust
km/h
Spd
kts
Gust
kts
27/11:30pm 22.7 19.3 11.1 48 6.5 E 20 32 11 17 1012.7 1011.4 0.0
27/11:00pm 23.3 19.7 10.7 45 7.1 E 20 30 11 16 1012.5 1011.2 0.0
27/10:30pm 23.8 19.9 10.8 44 7.3 E 22 37 12 20 1012.7 1011.4 0.0
27/10:00pm 24.9 20.8 10.0 39 8.3 E 22 32 12 17 1012.6 1011.3 0.0
27/09:30pm 26.5 21.9 6.5 28 10.6 E 20 30 11 16 1012.5 1011.2 0.0
27/09:00pm 27.5 22.9 5.7 25 11.5 E 19 22 10 12 1012.3 1011.0 0.0
27/08:30pm 27.9 23.8 6.1 25 11.6 E 17 24 9 13 1012.1 1010.7 0.0
27/08:00pm 28.7 24.7 6.7 25 11.8 E 17 22 9 12 1011.8 1010.4 0.0
27/07:30pm 29.4 26.3 7.3 25 12.1 E 13 17 7 9 1011.4 1010.0 0.0
27/07:00pm 30.3 27.5 6.9 23 12.7 E 11 15 6 8 1010.9 1009.6 0.0
27/06:30pm 31.7 28.6 7.4 22 13.4 E 13 19 7 10 1010.6 1009.3 0.0
27/06:00pm 32.4 28.9 7.3 21 13.9 E 15 26 8 14 1010.3 1009.0 0.0
27/05:30pm 32.9 30.1 7.0 20 14.3 ESE 11 17 6 9 1010.2 1008.9 0.0
27/05:00pm 33.1 30.3 7.1 20 14.4 NE 11 24 6 13 1010.1 1008.8 0.0
27/04:30pm 33.2 30.1 7.2 20 14.4 NE 13 20 7 11 1010.3 1009.0 0.0
27/04:00pm 33.1 29.6 7.1 20 14.4 ENE 15 24 8 13 1010.4 1009.1 0.0
27/03:30pm 33.1 28.8 7.1 20 14.4 ENE 19 32 10 17 1010.7 1009.4 0.0
27/03:00pm 32.9 29.5 7.7 21 14.1 NNE 15 33 8 18 1010.8 1009.5 0.0
27/02:30pm 32.1 28.2 7.0 21 13.8 NE 17 30 9 16 1011.2 1009.8 0.0

Other Formats:

Comma delimited format used in spreadsheet applications
http://www.bom.gov.au/fwo/IDW60801/IDW60801.95642.axf

JavaScript Object Notation format (JSON) in row-major order
http://www.bom.gov.au/fwo/IDW60801/IDW60801.95642.json